createdAt,value
2023-01-18T00:00:34.588Z,42.75
2023-01-18T00:01:34.550Z,42.30
2023-01-18T00:02:34.498Z,42.39
2023-01-18T00:03:34.518Z,42.20
2023-01-18T00:04:34.550Z,41.76
2023-01-18T00:05:34.490Z,42.69
2023-01-18T00:06:34.491Z,43.87
2023-01-18T00:07:34.461Z,43.78
2023-01-18T00:08:34.480Z,46.03
2023-01-18T00:09:34.484Z,54.04
2023-01-18T00:10:34.448Z,43.43
2023-01-18T00:11:34.448Z,40.96
2023-01-18T00:12:34.453Z,41.79
2023-01-18T00:13:34.433Z,42.16
2023-01-18T00:14:34.431Z,41.93
2023-01-18T00:15:34.408Z,41.83
2023-01-18T00:16:34.437Z,44.66
2023-01-18T00:17:34.409Z,42.45
2023-01-18T00:18:34.439Z,42.58
2023-01-18T00:19:34.416Z,43.49
2023-01-18T00:20:34.433Z,44.48
2023-01-18T00:21:34.435Z,55.40
2023-01-18T00:22:34.380Z,49.69
2023-01-18T00:23:34.387Z,44.25
2023-01-18T00:24:34.368Z,43.08
2023-01-18T00:25:34.363Z,43.73
2023-01-18T00:26:34.344Z,44.27
2023-01-18T00:27:34.367Z,42.94
2023-01-18T00:28:34.350Z,42.18
2023-01-18T00:29:34.320Z,41.40
2023-01-18T00:30:34.361Z,40.86
2023-01-18T00:31:34.355Z,42.27
2023-01-18T00:32:34.317Z,46.66
2023-01-18T00:33:34.270Z,41.67
2023-01-18T00:34:34.307Z,41.16
2023-01-18T00:35:34.320Z,43.00
2023-01-18T00:36:34.271Z,50.72
2023-01-18T00:37:34.228Z,45.14
2023-01-18T00:38:34.381Z,41.29
2023-01-18T00:39:34.295Z,41.27
2023-01-18T00:40:34.236Z,41.99
2023-01-18T00:41:34.218Z,41.55
2023-01-18T00:42:34.258Z,41.51
2023-01-18T00:43:34.233Z,43.24
2023-01-18T00:44:34.218Z,44.46
2023-01-18T00:45:34.372Z,43.78
2023-01-18T00:46:34.216Z,45.41
2023-01-18T00:47:34.227Z,45.61
2023-01-18T00:48:34.181Z,44.06
2023-01-18T00:49:34.173Z,45.93
2023-01-18T00:50:34.163Z,45.81
2023-01-18T00:51:34.161Z,48.18
2023-01-18T00:52:34.173Z,47.82
2023-01-18T00:53:34.405Z,49.21
2023-01-18T00:54:34.217Z,46.85
2023-01-18T00:55:34.168Z,47.85
2023-01-18T00:56:34.101Z,46.53
2023-01-18T00:57:34.191Z,46.33
2023-01-18T00:58:34.114Z,48.75
2023-01-18T00:59:34.127Z,52.40
2023-01-18T01:00:34.093Z,58.04
2023-01-18T01:01:34.367Z,45.79
2023-01-18T01:02:34.140Z,44.46
2023-01-18T01:03:34.085Z,44.94
2023-01-18T01:04:34.129Z,43.67
2023-01-18T01:05:34.148Z,42.86
2023-01-18T01:06:34.094Z,42.84
2023-01-18T01:07:34.079Z,43.25
2023-01-18T01:08:34.024Z,44.82
2023-01-18T01:09:34.205Z,44.39
2023-01-18T01:10:34.047Z,42.90
2023-01-18T01:11:34.109Z,43.05
2023-01-18T01:12:34.024Z,44.08
2023-01-18T01:13:34.030Z,48.61
2023-01-18T01:14:34.071Z,51.62
2023-01-18T01:15:34.011Z,44.87
2023-01-18T01:16:34.001Z,43.88
2023-01-18T01:17:33.985Z,44.08
2023-01-18T01:18:33.988Z,42.53
2023-01-18T01:19:33.978Z,43.39
2023-01-18T01:20:34.009Z,45.46
2023-01-18T01:21:33.975Z,47.58
2023-01-18T01:22:33.971Z,54.21
2023-01-18T01:23:33.953Z,44.47
2023-01-18T01:24:33.955Z,43.68
2023-01-18T01:25:33.962Z,44.01
2023-01-18T01:26:33.982Z,45.27
2023-01-18T01:27:33.907Z,44.61
2023-01-18T01:28:33.893Z,44.02
2023-01-18T01:29:33.922Z,45.70
2023-01-18T01:30:33.952Z,44.41
2023-01-18T01:31:33.913Z,44.24
2023-01-18T01:32:33.870Z,44.88
2023-01-18T01:33:33.878Z,45.78
2023-01-18T01:34:33.861Z,46.55
2023-01-18T01:35:33.871Z,46.18
2023-01-18T01:36:33.875Z,45.42
2023-01-18T01:37:33.843Z,46.65
2023-01-18T01:38:33.897Z,45.63
2023-01-18T01:39:33.837Z,45.76
2023-01-18T01:40:33.848Z,44.06
2023-01-18T01:41:33.889Z,51.12
2023-01-18T01:42:33.857Z,52.75
2023-01-18T01:43:33.800Z,48.79
2023-01-18T01:44:33.799Z,43.92
2023-01-18T01:45:33.879Z,43.57
2023-01-18T01:46:33.808Z,44.10
2023-01-18T01:47:33.765Z,42.32
2023-01-18T01:48:33.762Z,44.68
2023-01-18T01:49:33.760Z,53.76
2023-01-18T01:50:33.750Z,45.26
2023-01-18T01:51:33.779Z,42.76
2023-01-18T01:52:33.811Z,44.01
2023-01-18T01:53:33.759Z,42.63
2023-01-18T01:54:33.799Z,42.65
2023-01-18T01:55:33.739Z,42.41
2023-01-18T01:56:33.772Z,42.75
2023-01-18T01:57:33.734Z,41.56
2023-01-18T01:58:33.696Z,41.15
2023-01-18T01:59:33.699Z,41.00
2023-01-18T02:00:33.726Z,41.32
2023-01-18T02:01:33.862Z,42.88
2023-01-18T02:02:33.734Z,42.21
2023-01-18T02:03:33.685Z,41.87
2023-01-18T02:04:33.748Z,41.67
2023-01-18T02:05:33.706Z,41.44
2023-01-18T02:06:33.705Z,41.55
2023-01-18T02:07:33.643Z,42.14
2023-01-18T02:08:33.687Z,42.02
2023-01-18T02:09:33.702Z,42.09
2023-01-18T02:10:33.618Z,41.57
2023-01-18T02:11:33.716Z,41.04
2023-01-18T02:12:33.661Z,40.25
2023-01-18T02:13:33.602Z,41.81
2023-01-18T02:14:33.669Z,41.45
2023-01-18T02:15:33.587Z,41.73
2023-01-18T02:16:33.708Z,43.32
2023-01-18T02:17:33.576Z,42.64
2023-01-18T02:18:33.572Z,42.74
2023-01-18T02:19:33.564Z,42.20
2023-01-18T02:20:33.572Z,41.05
2023-01-18T02:21:33.538Z,40.96
2023-01-18T02:22:33.538Z,40.80
2023-01-18T02:23:33.537Z,39.92
2023-01-18T02:24:33.638Z,40.66
2023-01-18T02:25:33.529Z,41.70
2023-01-18T02:26:33.514Z,42.66
2023-01-18T02:27:33.507Z,41.36
2023-01-18T02:28:33.500Z,41.57
2023-01-18T02:29:33.499Z,41.83
2023-01-18T02:30:33.550Z,42.80
2023-01-18T02:31:33.492Z,42.18
2023-01-18T02:32:33.480Z,42.55
2023-01-18T02:33:33.453Z,46.72
2023-01-18T02:34:33.485Z,45.63
2023-01-18T02:35:33.485Z,44.90
2023-01-18T02:36:33.443Z,43.31
2023-01-18T02:37:33.430Z,43.92
2023-01-18T02:38:33.466Z,45.12
2023-01-18T02:39:33.409Z,45.00
2023-01-18T02:40:33.409Z,46.43
2023-01-18T02:41:33.420Z,52.30
2023-01-18T02:42:33.400Z,41.92
2023-01-18T02:43:33.419Z,41.75
2023-01-18T02:44:33.400Z,42.10
2023-01-18T02:45:35.833Z,42.37
2023-01-18T02:46:33.404Z,43.24
2023-01-18T02:47:33.373Z,43.15
2023-01-18T02:48:33.383Z,44.83
2023-01-18T02:49:33.359Z,47.37
2023-01-18T02:50:33.383Z,48.02
2023-01-18T02:51:33.354Z,43.65
2023-01-18T02:52:33.346Z,42.35
2023-01-18T02:53:33.374Z,42.86
2023-01-18T02:54:33.338Z,43.30
2023-01-18T02:55:33.300Z,44.13
2023-01-18T02:56:33.321Z,46.65
2023-01-18T02:57:33.301Z,43.26
2023-01-18T02:58:33.351Z,43.09
2023-01-18T02:59:33.325Z,43.71
2023-01-18T03:00:33.301Z,44.04
2023-01-18T03:01:33.335Z,43.07
2023-01-18T03:02:33.348Z,43.09
2023-01-18T03:03:33.255Z,43.97
2023-01-18T03:04:33.269Z,43.86
2023-01-18T03:05:33.253Z,43.07
2023-01-18T03:06:33.251Z,42.57
2023-01-18T03:07:33.224Z,43.80
2023-01-18T03:08:33.243Z,43.14
2023-01-18T03:09:33.222Z,43.43
2023-01-18T03:10:33.255Z,42.74
2023-01-18T03:11:33.224Z,42.62
2023-01-18T03:12:33.215Z,50.82
2023-01-18T03:13:33.210Z,45.57
2023-01-18T03:14:33.203Z,44.42
2023-01-18T03:15:33.307Z,44.28
2023-01-18T03:16:33.192Z,49.14
2023-01-18T03:17:33.179Z,43.96
2023-01-18T03:18:33.163Z,43.80
2023-01-18T03:19:33.180Z,52.11
2023-01-18T03:20:33.164Z,51.89
2023-01-18T03:21:33.128Z,47.74
2023-01-18T03:22:33.135Z,44.29
2023-01-18T03:23:33.134Z,44.72
2023-01-18T03:24:33.134Z,46.68
2023-01-18T03:25:33.129Z,47.88
2023-01-18T03:26:33.162Z,45.49
2023-01-18T03:27:33.092Z,44.05
2023-01-18T03:28:33.089Z,44.11
2023-01-18T03:29:33.114Z,44.97
2023-01-18T03:30:33.094Z,47.76
2023-01-18T03:31:33.101Z,49.40
2023-01-18T03:32:33.077Z,47.12
2023-01-18T03:33:33.047Z,47.25
2023-01-18T03:34:33.070Z,45.71
2023-01-18T03:35:33.051Z,44.99
2023-01-18T03:36:33.155Z,45.92
2023-01-18T03:37:33.038Z,48.82
2023-01-18T03:38:33.059Z,46.22
2023-01-18T03:39:33.033Z,44.96
2023-01-18T03:40:33.017Z,42.72
2023-01-18T03:41:33.048Z,42.38
2023-01-18T03:42:33.007Z,45.58
2023-01-18T03:43:33.012Z,43.99
2023-01-18T03:44:32.999Z,44.67
2023-01-18T03:45:32.985Z,52.09
2023-01-18T03:46:33.129Z,43.73
2023-01-18T03:47:33.001Z,43.32
2023-01-18T03:48:32.970Z,43.09
2023-01-18T03:49:32.962Z,46.04
2023-01-18T03:50:32.949Z,56.71
2023-01-18T03:51:32.960Z,48.63
2023-01-18T03:52:32.964Z,45.71
2023-01-18T03:53:32.942Z,43.96
2023-01-18T03:54:32.961Z,46.67
2023-01-18T03:55:32.920Z,46.50
2023-01-18T03:56:32.922Z,44.39
2023-01-18T03:57:32.919Z,42.76
2023-01-18T03:58:32.893Z,42.04
2023-01-18T03:59:32.895Z,42.94
2023-01-18T04:00:32.903Z,45.80
2023-01-18T04:01:33.114Z,45.94
2023-01-18T04:02:32.938Z,48.92
2023-01-18T04:03:32.902Z,43.82
2023-01-18T04:04:32.892Z,43.44
2023-01-18T04:05:32.856Z,44.44
2023-01-18T04:06:32.852Z,49.17
2023-01-18T04:07:32.882Z,45.47
2023-01-18T04:08:32.850Z,45.14
2023-01-18T04:09:32.858Z,43.18
2023-01-18T04:10:32.890Z,43.85
2023-01-18T04:11:32.843Z,45.35
2023-01-18T04:12:32.805Z,43.05
2023-01-18T04:13:32.819Z,44.72
2023-01-18T04:14:32.823Z,44.46
2023-01-18T04:15:32.802Z,46.80
2023-01-18T04:16:32.815Z,44.44
2023-01-18T04:17:32.800Z,44.72
2023-01-18T04:18:32.790Z,43.41
2023-01-18T04:19:32.811Z,43.46
2023-01-18T04:20:32.752Z,42.88
2023-01-18T04:21:32.776Z,43.13
2023-01-18T04:22:32.767Z,43.87
2023-01-18T04:23:32.746Z,45.96
2023-01-18T04:24:32.765Z,46.56
2023-01-18T04:25:32.744Z,48.07
2023-01-18T04:26:32.881Z,49.06
2023-01-18T04:27:32.723Z,49.92
2023-01-18T04:28:32.709Z,48.62
2023-01-18T04:29:32.716Z,45.23
2023-01-18T04:30:32.705Z,43.93
2023-01-18T04:31:32.757Z,43.84
2023-01-18T04:32:32.694Z,44.02
2023-01-18T04:33:32.703Z,43.79
2023-01-18T04:34:32.684Z,44.40
2023-01-18T04:35:32.696Z,45.09
2023-01-18T04:36:32.676Z,44.63
2023-01-18T04:37:32.683Z,44.65
2023-01-18T04:38:32.662Z,45.42
2023-01-18T04:39:32.649Z,45.40
2023-01-18T04:40:32.630Z,45.39
2023-01-18T04:41:32.644Z,45.02
2023-01-18T04:42:32.613Z,44.49
2023-01-18T04:43:32.644Z,44.88
2023-01-18T04:44:32.584Z,45.78
2023-01-18T04:45:32.600Z,45.35
2023-01-18T04:46:32.624Z,45.16
2023-01-18T04:47:32.604Z,45.88
2023-01-18T04:48:32.603Z,45.84
2023-01-18T04:49:32.574Z,46.61
2023-01-18T04:50:32.561Z,46.00
2023-01-18T04:51:32.611Z,47.61
2023-01-18T04:52:32.544Z,45.08
2023-01-18T04:53:32.576Z,46.07
2023-01-18T04:54:32.540Z,45.92
2023-01-18T04:55:32.532Z,46.02
2023-01-18T04:56:32.528Z,45.36
2023-01-18T04:57:32.517Z,45.88
2023-01-18T04:58:32.541Z,45.00
2023-01-18T04:59:32.524Z,45.62
2023-01-18T05:00:32.574Z,45.07
2023-01-18T05:01:32.564Z,44.78
2023-01-18T05:02:32.568Z,45.34
2023-01-18T05:03:32.495Z,44.93
2023-01-18T05:04:32.525Z,44.17
2023-01-18T05:05:32.516Z,46.37
2023-01-18T05:06:32.500Z,44.89
2023-01-18T05:07:32.488Z,45.55
2023-01-18T05:08:32.606Z,47.03
2023-01-18T05:09:32.449Z,45.91
2023-01-18T05:10:32.439Z,48.11
2023-01-18T05:11:32.422Z,58.33
2023-01-18T05:12:32.438Z,49.60
2023-01-18T05:13:32.432Z,51.42
2023-01-18T05:14:32.430Z,52.67
2023-01-18T05:15:32.397Z,48.42
2023-01-18T05:16:32.452Z,55.30
2023-01-18T05:17:32.387Z,48.00
2023-01-18T05:18:32.421Z,45.33
2023-01-18T05:19:32.389Z,46.52
2023-01-18T05:20:32.410Z,45.83
2023-01-18T05:21:32.427Z,46.26
2023-01-18T05:22:32.409Z,45.60
2023-01-18T05:23:32.379Z,45.82
2023-01-18T05:24:32.374Z,45.64
2023-01-18T05:25:32.355Z,45.42
2023-01-18T05:26:32.371Z,45.18
2023-01-18T05:27:32.360Z,45.44
2023-01-18T05:28:32.346Z,51.92
2023-01-18T05:29:32.357Z,51.29
2023-01-18T05:30:32.368Z,48.08
2023-01-18T05:31:32.332Z,45.35
2023-01-18T05:32:32.301Z,45.16
2023-01-18T05:33:32.315Z,45.77
2023-01-18T05:34:32.285Z,45.08
2023-01-18T05:35:32.291Z,46.28
2023-01-18T05:36:32.370Z,50.09
2023-01-18T05:37:32.277Z,54.75
2023-01-18T05:38:32.274Z,46.75
2023-01-18T05:39:32.281Z,45.93
2023-01-18T05:40:32.311Z,45.30
2023-01-18T05:41:32.260Z,47.09
2023-01-18T05:42:32.243Z,45.85
2023-01-18T05:43:33.457Z,46.73
2023-01-18T05:44:32.244Z,44.73
2023-01-18T05:45:32.317Z,44.94
2023-01-18T05:46:32.237Z,47.53
2023-01-18T05:47:32.195Z,48.71
2023-01-18T05:48:32.215Z,45.37
2023-01-18T05:49:32.193Z,45.54
2023-01-18T05:50:32.197Z,45.21
2023-01-18T05:51:32.205Z,45.11
2023-01-18T05:52:32.205Z,47.06
2023-01-18T05:53:32.268Z,46.67
2023-01-18T05:54:32.167Z,55.88
2023-01-18T05:55:32.171Z,46.25
2023-01-18T05:56:32.191Z,44.80
2023-01-18T05:57:32.138Z,48.00
2023-01-18T05:58:32.129Z,51.91
2023-01-18T05:59:32.137Z,46.09
2023-01-18T06:00:32.125Z,47.48
2023-01-18T06:01:32.162Z,48.09
2023-01-18T06:02:32.131Z,47.02
2023-01-18T06:03:32.094Z,46.03
2023-01-18T06:04:32.192Z,45.92
2023-01-18T06:05:32.087Z,46.54
2023-01-18T06:06:33.934Z,46.28
2023-01-18T06:07:32.085Z,45.39
2023-01-18T06:08:32.082Z,45.99
2023-01-18T06:09:32.104Z,45.51
2023-01-18T06:10:32.069Z,45.50
2023-01-18T06:11:32.095Z,46.91
2023-01-18T06:12:32.099Z,45.67
2023-01-18T06:13:32.045Z,46.23
2023-01-18T06:14:32.058Z,48.72
2023-01-18T06:15:32.032Z,50.38
2023-01-18T06:16:32.105Z,55.32
2023-01-18T06:17:32.024Z,47.84
2023-01-18T06:18:32.036Z,47.83
2023-01-18T06:19:32.006Z,47.27
2023-01-18T06:20:32.016Z,47.73
2023-01-18T06:21:32.002Z,49.86
2023-01-18T06:22:31.995Z,46.86
2023-01-18T06:23:31.981Z,47.77
2023-01-18T06:24:31.996Z,47.04
2023-01-18T06:25:31.986Z,46.78
2023-01-18T06:26:31.989Z,48.37
2023-01-18T06:27:32.003Z,46.41
2023-01-18T06:28:31.956Z,47.15
2023-01-18T06:29:31.957Z,47.48
2023-01-18T06:30:31.979Z,46.97
2023-01-18T06:31:31.979Z,47.59
2023-01-18T06:32:32.111Z,46.29
2023-01-18T06:33:31.946Z,47.83
2023-01-18T06:34:31.914Z,48.98
2023-01-18T06:35:31.899Z,46.00
2023-01-18T06:36:31.924Z,47.91
2023-01-18T06:37:31.888Z,46.84
2023-01-18T06:38:31.924Z,47.10
2023-01-18T06:39:31.905Z,47.49
2023-01-18T06:40:31.877Z,46.01
2023-01-18T06:41:31.900Z,46.33
2023-01-18T06:42:31.881Z,47.78
2023-01-18T06:43:31.893Z,50.69
2023-01-18T06:44:31.899Z,56.20
2023-01-18T06:45:31.896Z,45.97
2023-01-18T06:46:31.889Z,45.28
2023-01-18T06:47:31.832Z,44.29
2023-01-18T06:48:31.839Z,44.56
2023-01-18T06:49:31.827Z,44.44
2023-01-18T06:50:31.855Z,44.98
2023-01-18T06:51:31.806Z,44.61
2023-01-18T06:52:31.800Z,45.15
2023-01-18T06:53:31.827Z,44.77
2023-01-18T06:54:31.791Z,56.18
2023-01-18T06:55:31.788Z,58.40
2023-01-18T06:56:31.793Z,45.58
2023-01-18T06:57:31.766Z,43.35
2023-01-18T06:58:31.782Z,43.49
2023-01-18T06:59:31.798Z,43.82
2023-01-18T07:00:31.752Z,44.45
2023-01-18T07:01:31.940Z,44.34
2023-01-18T07:02:31.730Z,45.24
2023-01-18T07:03:31.748Z,48.09
2023-01-18T07:04:34.064Z,43.30
2023-01-18T07:05:31.731Z,43.81
2023-01-18T07:06:31.753Z,43.62
2023-01-18T07:07:31.739Z,45.11
2023-01-18T07:08:31.707Z,45.58
2023-01-18T07:09:31.726Z,43.63
2023-01-18T07:10:31.718Z,44.71
2023-01-18T07:11:31.696Z,43.52
2023-01-18T07:12:31.673Z,43.93
2023-01-18T07:13:31.705Z,44.07
2023-01-18T07:14:31.668Z,43.67
2023-01-18T07:15:31.702Z,43.00
2023-01-18T07:16:31.699Z,44.02
2023-01-18T07:17:31.679Z,43.42
2023-01-18T07:18:31.653Z,43.20
2023-01-18T07:19:31.760Z,42.89
2023-01-18T07:20:31.648Z,46.87
2023-01-18T07:21:31.633Z,43.27
2023-01-18T07:22:31.637Z,53.32
2023-01-18T07:23:31.635Z,51.90
2023-01-18T07:24:31.627Z,51.70
2023-01-18T07:25:31.632Z,43.67
2023-01-18T07:26:31.607Z,43.36
2023-01-18T07:27:31.592Z,43.09
2023-01-18T07:28:31.603Z,42.45
2023-01-18T07:29:31.595Z,42.59
2023-01-18T07:30:31.568Z,45.44
2023-01-18T07:31:31.679Z,41.94
2023-01-18T07:32:31.560Z,41.96
2023-01-18T07:33:31.570Z,41.88
2023-01-18T07:34:31.572Z,41.73
2023-01-18T07:35:31.574Z,41.66
2023-01-18T07:36:31.540Z,41.60
2023-01-18T07:37:31.542Z,41.54
2023-01-18T07:38:31.553Z,42.35
2023-01-18T07:39:31.531Z,41.76
2023-01-18T07:40:31.516Z,41.96
2023-01-18T07:41:31.527Z,42.19
2023-01-18T07:42:31.491Z,43.98
2023-01-18T07:43:31.507Z,49.08
2023-01-18T07:44:31.494Z,43.69
2023-01-18T07:45:31.497Z,41.85
2023-01-18T07:46:31.647Z,41.72
2023-01-18T07:47:31.540Z,41.17
2023-01-18T07:48:31.467Z,42.33
2023-01-18T07:49:31.507Z,45.48
2023-01-18T07:50:31.449Z,44.73
2023-01-18T07:51:31.475Z,42.14
2023-01-18T07:52:31.453Z,41.76
2023-01-18T07:53:31.436Z,42.10
2023-01-18T07:54:31.430Z,41.97
2023-01-18T07:55:31.445Z,50.53
2023-01-18T07:56:31.402Z,67.08
2023-01-18T07:57:31.434Z,49.58
2023-01-18T07:58:31.419Z,55.48
2023-01-18T07:59:31.409Z,54.57
2023-01-18T08:00:31.489Z,44.69
2023-01-18T08:01:31.510Z,47.18
2023-01-18T08:02:31.375Z,43.34
2023-01-18T08:03:31.614Z,44.74
2023-01-18T08:04:31.378Z,43.54
2023-01-18T08:05:31.377Z,46.89
2023-01-18T08:06:31.377Z,43.99
2023-01-18T08:07:31.349Z,45.51
2023-01-18T08:08:31.354Z,45.94
2023-01-18T08:09:31.332Z,60.74
2023-01-18T08:10:31.316Z,75.52
2023-01-18T08:11:31.329Z,65.49
2023-01-18T08:12:31.315Z,70.22
2023-01-18T08:13:31.354Z,68.17
2023-01-18T08:14:31.304Z,68.15
2023-01-18T08:15:31.367Z,68.20
2023-01-18T08:16:31.295Z,68.19
2023-01-18T08:17:31.271Z,68.13
2023-01-18T08:18:31.273Z,68.25
2023-01-18T08:19:31.322Z,65.87
2023-01-18T08:20:31.260Z,67.98
2023-01-18T08:21:31.286Z,66.45
2023-01-18T08:22:31.247Z,48.42
2023-01-18T08:23:31.278Z,52.02
2023-01-18T08:24:31.264Z,57.82
2023-01-18T08:25:31.238Z,54.37
2023-01-18T08:26:31.223Z,49.00
2023-01-18T08:27:31.254Z,63.83
2023-01-18T08:28:31.222Z,55.96
2023-01-18T08:29:31.200Z,47.86
2023-01-18T08:30:31.204Z,58.45
2023-01-18T08:31:31.299Z,68.30
2023-01-18T08:32:31.170Z,68.91
2023-01-18T08:33:31.229Z,69.40
2023-01-18T08:34:31.175Z,65.96
2023-01-18T08:35:31.246Z,69.86
2023-01-18T08:36:31.181Z,70.26
2023-01-18T08:37:31.159Z,67.73
2023-01-18T08:38:31.178Z,70.35
2023-01-18T08:39:31.150Z,65.93
2023-01-18T08:40:31.138Z,67.70
2023-01-18T08:41:31.163Z,69.59
2023-01-18T08:42:31.108Z,70.22
2023-01-18T08:43:31.149Z,67.14
2023-01-18T08:44:31.098Z,49.69
2023-01-18T08:45:31.123Z,46.95
2023-01-18T08:46:31.158Z,69.21
2023-01-18T08:47:31.086Z,69.27
2023-01-18T08:48:31.088Z,69.29
2023-01-18T08:49:31.135Z,69.19
2023-01-18T08:50:31.053Z,69.25
2023-01-18T08:51:31.113Z,47.20
2023-01-18T08:52:31.073Z,47.20
2023-01-18T08:53:31.078Z,46.43
2023-01-18T08:54:31.043Z,47.75
2023-01-18T08:55:31.052Z,55.77
2023-01-18T08:56:31.009Z,60.37
2023-01-18T08:57:31.021Z,44.45
2023-01-18T08:58:31.025Z,57.06
2023-01-18T08:59:31.044Z,54.10
2023-01-18T09:00:30.984Z,46.52
2023-01-18T09:01:31.071Z,45.95
2023-01-18T09:02:31.016Z,57.14
2023-01-18T09:03:30.976Z,68.14
2023-01-18T09:04:30.986Z,44.08
2023-01-18T09:05:30.966Z,64.63
2023-01-18T09:06:30.967Z,69.28
2023-01-18T09:07:31.087Z,64.66
2023-01-18T09:08:30.959Z,64.95
2023-01-18T09:09:30.923Z,71.11
2023-01-18T09:10:30.937Z,72.03
2023-01-18T09:11:30.914Z,72.57
2023-01-18T09:12:30.915Z,71.79
2023-01-18T09:13:30.904Z,70.93
2023-01-18T09:14:30.883Z,71.36
2023-01-18T09:15:30.878Z,71.77
2023-01-18T09:16:31.072Z,57.60
2023-01-18T09:17:31.235Z,71.94
2023-01-18T09:18:30.904Z,71.64
2023-01-18T09:19:30.838Z,71.25
2023-01-18T09:20:30.860Z,52.74
2023-01-18T09:21:30.826Z,69.94
2023-01-18T09:22:30.842Z,62.85
2023-01-18T09:23:30.855Z,69.04
2023-01-18T09:24:30.859Z,69.59
2023-01-18T09:25:30.806Z,69.60
2023-01-18T09:26:30.847Z,68.41
2023-01-18T09:27:30.780Z,67.21
2023-01-18T09:28:30.785Z,67.27
2023-01-18T09:29:30.781Z,66.87
2023-01-18T09:30:30.779Z,66.79
2023-01-18T09:31:30.979Z,50.57
2023-01-18T09:32:30.786Z,59.31
2023-01-18T09:33:37.608Z,53.59
2023-01-18T09:34:31.744Z,52.03
2023-01-18T09:35:30.765Z,58.07
2023-01-18T09:36:30.726Z,45.68
2023-01-18T09:37:30.765Z,43.87
2023-01-18T09:38:30.719Z,47.65
2023-01-18T09:39:35.375Z,69.61
2023-01-18T09:40:31.726Z,46.03
2023-01-18T09:41:30.680Z,44.77
2023-01-18T09:42:30.752Z,47.26
2023-01-18T09:43:30.693Z,49.58
2023-01-18T09:44:30.705Z,44.83
2023-01-18T09:45:30.669Z,43.17
2023-01-18T09:46:30.678Z,45.74
2023-01-18T09:47:30.656Z,47.73
2023-01-18T09:48:30.646Z,48.40
2023-01-18T09:49:30.679Z,54.14
2023-01-18T09:50:30.637Z,47.97
2023-01-18T09:51:30.605Z,51.60
2023-01-18T09:52:30.619Z,50.33
2023-01-18T09:53:30.595Z,44.16
2023-01-18T09:54:30.612Z,45.50
2023-01-18T09:55:30.671Z,53.16
2023-01-18T09:56:30.581Z,42.89
2023-01-18T09:57:30.610Z,42.33
2023-01-18T09:58:30.598Z,42.06
2023-01-18T09:59:30.566Z,42.59
2023-01-18T10:00:30.627Z,42.52
2023-01-18T10:01:30.686Z,43.40
2023-01-18T10:02:30.584Z,42.94
2023-01-18T10:03:30.561Z,41.82
2023-01-18T10:04:30.538Z,41.34
2023-01-18T10:05:30.514Z,42.48
2023-01-18T10:06:30.514Z,43.23
2023-01-18T10:07:30.521Z,42.29
2023-01-18T10:08:30.496Z,41.61
2023-01-18T10:09:30.540Z,41.99
2023-01-18T10:10:30.479Z,42.00
2023-01-18T10:11:30.513Z,47.17
2023-01-18T10:12:30.493Z,43.81
2023-01-18T10:13:30.475Z,44.37
2023-01-18T10:14:30.472Z,43.50
2023-01-18T10:15:30.446Z,50.45
2023-01-18T10:16:30.466Z,41.68
2023-01-18T10:17:30.522Z,45.95
2023-01-18T10:18:30.449Z,42.15
2023-01-18T10:19:30.435Z,55.67
2023-01-18T10:20:30.430Z,56.64
2023-01-18T10:21:30.401Z,41.82
2023-01-18T10:22:30.422Z,43.22
2023-01-18T10:23:30.392Z,43.80
2023-01-18T10:24:30.399Z,42.27
2023-01-18T10:25:30.404Z,47.38
2023-01-18T10:26:30.383Z,55.55
2023-01-18T10:27:30.468Z,48.71
2023-01-18T10:28:30.354Z,49.44
2023-01-18T10:29:30.349Z,56.07
2023-01-18T10:30:30.360Z,43.46
2023-01-18T10:31:30.483Z,43.55
2023-01-18T10:32:30.317Z,42.17
2023-01-18T10:33:30.321Z,44.71
2023-01-18T10:34:30.343Z,44.99
2023-01-18T10:35:30.309Z,42.75
2023-01-18T10:36:30.338Z,44.20
2023-01-18T10:37:30.346Z,44.63
2023-01-18T10:38:30.305Z,43.17
2023-01-18T10:39:30.310Z,41.64
2023-01-18T10:40:30.263Z,50.80
2023-01-18T10:41:30.283Z,50.11
2023-01-18T10:42:30.288Z,42.81
2023-01-18T10:43:30.371Z,43.32
2023-01-18T10:44:30.286Z,47.40
2023-01-18T10:45:30.382Z,51.55
2023-01-18T10:46:30.233Z,49.78
2023-01-18T10:47:30.243Z,46.25
2023-01-18T10:48:30.225Z,45.99
2023-01-18T10:49:30.233Z,49.27
2023-01-18T10:50:30.204Z,42.49
2023-01-18T10:51:30.239Z,42.85
2023-01-18T10:52:30.246Z,45.30
2023-01-18T10:53:30.187Z,43.48
2023-01-18T10:54:30.196Z,44.38
2023-01-18T10:55:30.190Z,42.37
2023-01-18T10:56:30.171Z,41.73
2023-01-18T10:57:30.185Z,43.41
2023-01-18T10:58:30.145Z,50.79
2023-01-18T10:59:30.224Z,45.11
2023-01-18T11:00:30.139Z,46.37
2023-01-18T11:01:30.419Z,44.91
2023-01-18T11:02:30.310Z,43.65
2023-01-18T11:03:30.136Z,46.97
2023-01-18T11:04:30.116Z,46.10
2023-01-18T11:05:30.117Z,53.29
2023-01-18T11:06:30.142Z,43.90
2023-01-18T11:07:30.116Z,46.57
2023-01-18T11:08:30.117Z,44.00
2023-01-18T11:09:30.104Z,42.29
2023-01-18T11:10:30.072Z,43.52
2023-01-18T11:11:30.092Z,42.44
2023-01-18T11:12:30.063Z,42.43
2023-01-18T11:13:30.067Z,43.17
2023-01-18T11:14:30.068Z,46.62
2023-01-18T11:15:30.068Z,44.54
2023-01-18T11:16:30.053Z,43.39
2023-01-18T11:17:30.050Z,45.56
2023-01-18T11:18:30.045Z,43.52
2023-01-18T11:19:30.056Z,44.52
2023-01-18T11:20:30.003Z,43.60
2023-01-18T11:21:30.016Z,43.59
2023-01-18T11:22:30.007Z,44.32
2023-01-18T11:23:30.037Z,46.25
2023-01-18T11:24:30.002Z,58.26
2023-01-18T11:25:30.009Z,45.45
2023-01-18T11:26:29.961Z,44.45
2023-01-18T11:27:29.977Z,45.37
2023-01-18T11:28:29.998Z,48.79
2023-01-18T11:29:29.961Z,51.48
2023-01-18T11:30:29.961Z,49.84
2023-01-18T11:31:30.017Z,43.86
2023-01-18T11:32:29.956Z,43.65
2023-01-18T11:33:29.952Z,43.38
2023-01-18T11:34:29.931Z,44.22
2023-01-18T11:35:30.200Z,46.21
2023-01-18T11:36:29.912Z,45.99
2023-01-18T11:37:29.905Z,55.43
2023-01-18T11:38:29.887Z,47.48
2023-01-18T11:39:29.898Z,45.35
2023-01-18T11:40:29.868Z,54.52
2023-01-18T11:41:29.882Z,51.47
2023-01-18T11:42:29.865Z,44.30
2023-01-18T11:43:29.915Z,43.46
2023-01-18T11:44:29.872Z,49.17
2023-01-18T11:45:29.930Z,43.55
2023-01-18T11:46:29.974Z,43.90
2023-01-18T11:47:29.937Z,43.32
2023-01-18T11:48:29.838Z,43.16
2023-01-18T11:49:29.853Z,50.31
2023-01-18T11:50:29.842Z,46.64
2023-01-18T11:51:30.234Z,47.75
2023-01-18T11:52:29.814Z,43.24
2023-01-18T11:53:29.797Z,46.88
2023-01-18T11:54:29.803Z,44.79
2023-01-18T11:55:29.811Z,43.72
2023-01-18T11:56:29.881Z,43.96
2023-01-18T11:57:29.792Z,46.32
2023-01-18T11:58:29.767Z,42.48
2023-01-18T11:59:29.767Z,42.65
2023-01-18T12:00:29.767Z,42.15
2023-01-18T12:01:29.725Z,42.45
2023-01-18T12:02:29.805Z,43.34
2023-01-18T12:03:29.861Z,44.28
2023-01-18T12:04:29.896Z,42.69
2023-01-18T12:05:29.717Z,44.79
2023-01-18T12:06:29.701Z,50.01
2023-01-18T12:07:29.709Z,49.09
2023-01-18T12:08:29.702Z,46.72
2023-01-18T12:09:29.690Z,42.35
2023-01-18T12:10:29.657Z,45.19
2023-01-18T12:11:29.681Z,48.62
2023-01-18T12:12:29.650Z,46.73
2023-01-18T12:13:29.649Z,43.71
2023-01-18T12:14:29.660Z,49.23
2023-01-18T12:15:29.641Z,44.80
2023-01-18T12:16:29.649Z,44.47
2023-01-18T12:17:29.628Z,43.61
2023-01-18T12:18:29.634Z,44.63
2023-01-18T12:19:29.666Z,45.13
2023-01-18T12:20:29.649Z,48.34
2023-01-18T12:21:29.603Z,59.24
2023-01-18T12:22:29.615Z,52.05
2023-01-18T12:23:29.593Z,47.32
2023-01-18T12:24:29.577Z,51.87
2023-01-18T12:25:29.603Z,49.28
2023-01-18T12:26:29.561Z,49.54
2023-01-18T12:27:29.572Z,57.63
2023-01-18T12:28:29.553Z,49.38
2023-01-18T12:29:29.542Z,46.60
2023-01-18T12:30:29.606Z,47.04
2023-01-18T12:31:29.545Z,50.44
2023-01-18T12:32:29.533Z,48.75
2023-01-18T12:33:42.796Z,47.37
2023-01-18T12:34:30.508Z,50.46
2023-01-18T12:35:29.551Z,48.58
2023-01-18T12:36:29.499Z,46.12
2023-01-18T12:37:29.494Z,51.92
2023-01-18T12:38:29.514Z,57.67
2023-01-18T12:39:29.496Z,47.85
2023-01-18T12:40:29.475Z,48.61
2023-01-18T12:41:29.469Z,49.00
2023-01-18T12:42:29.453Z,50.46
2023-01-18T12:43:29.471Z,46.03
2023-01-18T12:44:29.456Z,45.56
2023-01-18T12:45:29.447Z,44.84
2023-01-18T12:46:29.541Z,43.31
2023-01-18T12:47:29.458Z,43.01
2023-01-18T12:48:29.463Z,43.65
2023-01-18T12:49:29.435Z,43.44
2023-01-18T12:50:29.446Z,43.48
2023-01-18T12:51:29.444Z,45.74
2023-01-18T12:52:29.434Z,48.58